Time;durP1;ratioP1;P1;durP2;ratioP2;P2;SDS_P1;SDS_P2;PMS_P1;PMS_P2;Temp;Humidity;BMP_temperature;BMP_pressure;BME280_temperature;BME280_humidity;BME280_pressure;Samples;Min_cycle;Max_cycle;Signal;HPM_P1;HPM_P2
2023/07/29 00:00:46;;;;;;;10.93;5.50;;;18.90;99.90;;;;;;5028102;28;20067;-90
2023/07/29 00:03:12;;;;;;;10.98;5.68;;;18.90;99.90;;;;;;5023240;28;20040;-91
2023/07/29 00:05:39;;;;;;;11.20;5.80;;;18.90;99.90;;;;;;5018599;28;20041;-91
2023/07/29 00:08:04;;;;;;;10.32;5.25;;;18.90;99.90;;;;;;5024220;28;20043;-91
2023/07/29 00:10:37;;;;;;;10.80;5.85;;;18.90;99.90;;;;;;5019550;28;20036;-91
2023/07/29 00:13:03;;;;;;;11.38;6.30;;;18.90;99.90;;;;;;4999547;28;20040;-90
2023/07/29 00:15:29;;;;;;;10.32;5.65;;;18.90;99.90;;;;;;5032508;28;20040;-91
2023/07/29 00:17:55;;;;;;;10.60;5.95;;;18.90;99.90;;;;;;5004276;28;20485;-90
2023/07/29 00:20:21;;;;;;;12.10;5.80;;;19.00;99.90;;;;;;4987716;28;20581;-92
2023/07/29 00:22:46;;;;;;;11.55;6.07;;;18.90;99.90;;;;;;5036108;28;20041;-90
2023/07/29 00:25:12;;;;;;;9.60;5.35;;;19.00;99.90;;;;;;4985410;28;20047;-90
2023/07/29 00:27:38;;;;;;;10.95;5.78;;;19.00;99.90;;;;;;5023075;28;20044;-91
2023/07/29 00:30:04;;;;;;;10.43;5.40;;;19.00;99.90;;;;;;4991075;28;20048;-90
2023/07/29 00:32:31;;;;;;;12.98;5.97;;;19.00;99.90;;;;;;5023714;28;20049;-90
2023/07/29 00:34:56;;;;;;;10.85;5.75;;;19.00;99.90;;;;;;5012372;28;20046;-90
2023/07/29 00:37:22;;;;;;;10.27;5.53;;;19.00;99.90;;;;;;4991562;28;20040;-91
2023/07/29 00:39:48;;;;;;;10.55;5.47;;;19.00;99.90;;;;;;5005482;28;20033;-90
2023/07/29 00:42:13;;;;;;;9.90;5.60;;;19.00;99.90;;;;;;4987752;28;20076;-90
2023/07/29 00:44:39;;;;;;;12.30;5.60;;;18.90;99.90;;;;;;5016946;28;20044;-90
2023/07/29 00:47:06;;;;;;;10.30;5.82;;;18.90;99.90;;;;;;5004987;28;20029;-91
2023/07/29 00:49:33;;;;;;;10.10;5.35;;;18.90;99.90;;;;;;5004242;28;20095;-90
2023/07/29 00:51:58;;;;;;;12.02;5.78;;;18.90;99.90;;;;;;5004337;28;20094;-90
2023/07/29 00:54:24;;;;;;;10.40;5.78;;;18.90;99.90;;;;;;5025420;28;20041;-89
2023/07/29 00:56:50;;;;;;;12.40;6.00;;;18.90;99.90;;;;;;5007254;28;20060;-90
2023/07/29 00:59:16;;;;;;;12.05;5.95;;;18.90;99.90;;;;;;5010618;28;20065;-90
2023/07/29 01:01:42;;;;;;;13.93;6.75;;;18.90;99.90;;;;;;5003245;28;20484;-90
2023/07/29 01:04:08;;;;;;;12.20;6.70;;;18.90;99.90;;;;;;4989632;28;20054;-90
2023/07/29 01:06:49;;;;;;;11.10;5.78;;;18.90;99.90;;;;;;4985026;28;20056;-90
2023/07/29 01:09:29;;;;;;;10.98;6.07;;;18.90;99.90;;;;;;5041221;28;20045;-90
2023/07/29 01:12:20;;;;;;;11.73;6.60;;;18.90;99.90;;;;;;5017336;28;20465;-90
2023/07/29 01:15:16;;;;;;;11.02;6.53;;;18.90;99.90;;;;;;5018319;28;20039;-89
2023/07/29 01:17:55;;;;;;;11.75;6.07;;;18.80;99.90;;;;;;5015380;28;20134;-90
2023/07/29 01:20:23;;;;;;;10.95;6.13;;;18.80;99.90;;;;;;5019362;28;20037;-89
2023/07/29 01:22:49;;;;;;;11.90;6.55;;;18.80;99.90;;;;;;4996379;28;20049;-90
2023/07/29 01:25:15;;;;;;;11.68;6.75;;;18.70;99.90;;;;;;5005598;28;20053;-90
2023/07/29 01:27:43;;;;;;;12.43;6.38;;;18.70;99.90;;;;;;5004177;28;20546;-90
2023/07/29 01:30:09;;;;;;;13.15;6.93;;;18.70;99.90;;;;;;5027214;28;20268;-90
2023/07/29 01:32:57;;;;;;;11.13;6.55;;;18.60;99.90;;;;;;5009231;28;20341;-90
2023/07/29 01:35:52;;;;;;;12.45;6.25;;;18.60;99.90;;;;;;5015281;28;20048;-89
2023/07/29 01:38:23;;;;;;;10.75;5.65;;;18.60;99.90;;;;;;5018536;28;20047;-90
2023/07/29 01:40:50;;;;;;;11.40;6.60;;;18.50;99.90;;;;;;5026240;28;20033;-90
2023/07/29 01:43:18;;;;;;;11.63;6.93;;;18.50;99.90;;;;;;5020567;28;20477;-90
2023/07/29 01:45:44;;;;;;;11.25;6.32;;;18.40;99.90;;;;;;5001146;28;20038;-89
2023/07/29 01:48:10;;;;;;;11.50;6.25;;;18.40;99.90;;;;;;5026945;28;20115;-90
2023/07/29 01:50:35;;;;;;;11.77;6.90;;;18.40;99.90;;;;;;5004269;28;20048;-90
2023/07/29 01:53:01;;;;;;;11.30;6.35;;;18.30;99.90;;;;;;4996501;28;20040;-90
2023/07/29 01:55:27;;;;;;;11.88;7.00;;;18.30;99.90;;;;;;4991146;28;20044;-89
2023/07/29 01:57:53;;;;;;;11.68;6.25;;;18.30;99.90;;;;;;5026882;28;20417;-91
2023/07/29 02:00:19;;;;;;;11.48;6.88;;;18.20;99.90;;;;;;5027644;28;20044;-90
2023/07/29 02:02:45;;;;;;;12.75;6.82;;;18.20;99.90;;;;;;5024370;28;20048;-91
2023/07/29 02:05:11;;;;;;;11.05;6.72;;;18.20;99.90;;;;;;5018029;28;20095;-90
2023/07/29 02:07:37;;;;;;;11.30;6.75;;;18.20;99.90;;;;;;5010162;28;20582;-90
2023/07/29 02:10:03;;;;;;;11.77;6.93;;;18.10;99.90;;;;;;5020878;28;20251;-90
2023/07/29 02:12:28;;;;;;;12.25;6.82;;;18.10;99.90;;;;;;4997444;28;20388;-90
2023/07/29 02:14:54;;;;;;;11.10;6.47;;;18.10;99.90;;;;;;5005904;28;20482;-89
2023/07/29 02:17:20;;;;;;;11.85;6.45;;;18.10;99.90;;;;;;5003686;28;20037;-90
2023/07/29 02:19:46;;;;;;;11.02;6.70;;;18.10;99.90;;;;;;4988559;28;20040;-90
2023/07/29 02:22:17;;;;;;;12.50;6.80;;;18.00;99.90;;;;;;5007431;28;20510;-91
2023/07/29 02:24:43;;;;;;;12.60;6.97;;;18.00;99.90;;;;;;5004455;28;20049;-90
2023/07/29 02:27:08;;;;;;;11.15;6.47;;;18.00;99.90;;;;;;4998637;28;20037;-90
2023/07/29 02:29:34;;;;;;;11.90;6.65;;;17.90;99.90;;;;;;5005613;28;20048;-90
2023/07/29 02:32:00;;;;;;;13.02;7.03;;;17.90;99.90;;;;;;4986692;28;20431;-90
2023/07/29 02:34:26;;;;;;;12.90;6.63;;;;;;;;;;5005189;28;20029;-91
2023/07/29 02:36:52;;;;;;;11.88;7.13;;;18.00;99.90;;;;;;5030363;28;20041;-90
2023/07/29 02:39:18;;;;;;;11.65;7.35;;;17.90;99.90;;;;;;5000996;28;20509;-90
2023/07/29 02:41:44;;;;;;;12.30;7.20;;;17.90;99.90;;;;;;5000959;28;20033;-90
2023/07/29 02:44:09;;;;;;;14.55;7.25;;;17.90;99.90;;;;;;5021249;28;20084;-90
2023/07/29 02:46:35;;;;;;;10.45;6.22;;;17.80;99.90;;;;;;4999419;28;20493;-90
2023/07/29 02:49:03;;;;;;;12.10;6.53;;;17.80;99.90;;;;;;5021419;28;20068;-90
2023/07/29 02:51:29;;;;;;;12.13;6.65;;;17.80;99.90;;;;;;5002840;28;20033;-90
2023/07/29 02:53:54;;;;;;;11.90;6.40;;;17.80;99.90;;;;;;5024128;28;20044;-90
2023/07/29 02:56:20;;;;;;;11.25;6.55;;;17.80;99.90;;;;;;4984143;28;20045;-90
2023/07/29 02:58:46;;;;;;;11.55;6.40;;;17.70;99.90;;;;;;5001394;28;20168;-89
2023/07/29 03:01:11;;;;;;;12.52;6.97;;;16.80;99.90;;;;;;4989162;28;20033;-90
2023/07/29 03:03:37;;;;;;;12.07;6.70;;;17.70;99.90;;;;;;4997357;28;20121;-90
2023/07/29 03:06:08;;;;;;;12.13;6.50;;;17.70;99.90;;;;;;5021010;28;20059;-90
2023/07/29 03:08:34;;;;;;;12.15;6.43;;;17.70;99.90;;;;;;5016077;28;20492;-90
2023/07/29 03:11:13;;;;;;;10.30;5.97;;;17.70;99.90;;;;;;5004048;28;20037;-90
2023/07/29 03:13:38;;;;;;;11.20;6.40;;;17.70;99.90;;;;;;5019546;28;20042;-91
2023/07/29 03:16:06;;;;;;;10.75;5.80;;;17.60;99.90;;;;;;5007378;28;20495;-90
2023/07/29 03:18:31;;;;;;;11.00;5.90;;;17.70;99.90;;;;;;5018463;28;20043;-90
2023/07/29 03:20:57;;;;;;;12.02;6.25;;;17.60;99.90;;;;;;5014429;28;20045;-91
2023/07/29 03:23:23;;;;;;;10.40;5.82;;;17.60;99.90;;;;;;5000351;28;20087;-90
2023/07/29 03:25:51;;;;;;;11.48;6.25;;;17.60;99.90;;;;;;5000378;28;20492;-89
2023/07/29 03:28:17;;;;;;;11.05;6.18;;;17.60;99.90;;;;;;5006677;28;20179;-90
2023/07/29 03:30:42;;;;;;;10.95;5.90;;;17.60;99.90;;;;;;4997442;28;20120;-90
2023/07/29 03:33:08;;;;;;;12.48;6.47;;;17.60;99.90;;;;;;5009002;28;20040;-91
2023/07/29 03:35:34;;;;;;;12.43;5.70;;;17.60;99.90;;;;;;5033754;28;20037;-90
2023/07/29 03:37:59;;;;;;;12.10;5.88;;;17.50;99.90;;;;;;5004263;28;20041;-90
2023/07/29 03:40:25;;;;;;;11.63;5.82;;;17.50;99.90;;;;;;5020957;28;20037;-90
2023/07/29 03:42:51;;;;;;;14.70;6.13;;;17.50;99.90;;;;;;4986350;28;20041;-91
2023/07/29 03:45:16;;;;;;;12.00;5.75;;;17.50;99.90;;;;;;4981067;28;20414;-90
2023/07/29 03:47:42;;;;;;;11.07;5.80;;;17.40;99.90;;;;;;4982566;28;20184;-90
2023/07/29 03:50:08;;;;;;;11.45;5.70;;;17.50;99.90;;;;;;4988611;28;20048;-90
2023/07/29 03:52:34;;;;;;;10.77;5.38;;;17.40;99.90;;;;;;4983057;28;20029;-89
2023/07/29 03:54:59;;;;;;;10.13;5.47;;;17.40;99.90;;;;;;5003338;28;20037;-90
2023/07/29 03:57:25;;;;;;;10.65;5.53;;;17.40;99.90;;;;;;5002385;28;20033;-90
2023/07/29 03:59:51;;;;;;;11.05;5.28;;;17.40;99.90;;;;;;5001382;28;20171;-90
2023/07/29 04:02:17;;;;;;;10.38;5.32;;;17.40;99.90;;;;;;4982481;28;20049;-90
2023/07/29 04:04:44;;;;;;;11.88;5.53;;;17.40;99.90;;;;;;5006857;28;20460;-90
2023/07/29 04:07:09;;;;;;;10.57;5.13;;;17.40;99.90;;;;;;4999273;28;20046;-92
2023/07/29 04:09:35;;;;;;;9.35;4.78;;;17.30;99.90;;;;;;5002071;28;20049;-89
2023/07/29 04:12:01;;;;;;;12.27;5.03;;;17.40;99.90;;;;;;5019976;28;20036;-90
2023/07/29 04:14:27;;;;;;;11.27;5.00;;;17.40;99.90;;;;;;5006465;28;21747;-89
2023/07/29 04:16:53;;;;;;;9.63;4.53;;;17.30;99.90;;;;;;4989396;28;20148;-90
2023/07/29 04:19:18;;;;;;;9.93;5.03;;;17.30;99.90;;;;;;4991681;28;20033;-89
2023/07/29 04:21:44;;;;;;;10.40;4.47;;;17.40;99.90;;;;;;5000348;28;20398;-89
2023/07/29 04:24:10;;;;;;;9.88;4.25;;;17.40;99.90;;;;;;5032676;28;20045;-89
2023/07/29 04:26:35;;;;;;;10.13;4.60;;;17.40;99.90;;;;;;5000448;28;20682;-89
2023/07/29 04:29:01;;;;;;;12.23;4.78;;;17.40;99.90;;;;;;4983905;28;20141;-89
2023/07/29 04:31:27;;;;;;;13.68;4.97;;;17.40;99.90;;;;;;5007590;28;20486;-89
2023/07/29 04:33:52;;;;;;;9.90;5.10;;;17.40;99.90;;;;;;5020214;28;20068;-90
2023/07/29 04:36:18;;;;;;;9.45;4.38;;;17.40;99.90;;;;;;5021721;28;20032;-90
2023/07/29 04:38:44;;;;;;;9.80;4.22;;;17.50;99.90;;;;;;5004432;28;20143;-89
2023/07/29 04:41:10;;;;;;;12.15;4.53;;;17.40;99.90;;;;;;5015763;28;20188;-89
2023/07/29 04:43:36;;;;;;;10.25;4.43;;;17.40;99.90;;;;;;4999201;28;20048;-90
2023/07/29 04:46:03;;;;;;;9.48;4.15;;;17.50;99.90;;;;;;5021431;28;20029;-88
2023/07/29 04:48:28;;;;;;;11.20;4.63;;;17.50;99.90;;;;;;5002846;28;20389;-89
2023/07/29 04:50:54;;;;;;;10.38;3.92;;;17.50;99.90;;;;;;5002430;28;20045;-89
2023/07/29 04:53:20;;;;;;;9.88;3.92;;;17.60;99.90;;;;;;5013096;28;20044;-90
2023/07/29 04:55:46;;;;;;;10.27;4.00;;;17.60;99.90;;;;;;4986804;28;20119;-89
2023/07/29 04:58:11;;;;;;;9.35;4.07;;;17.70;99.90;;;;;;5000993;28;20041;-91
2023/07/29 05:00:37;;;;;;;9.60;3.38;;;17.70;99.90;;;;;;4981854;28;20044;-90
2023/07/29 05:03:02;;;;;;;10.32;3.78;;;17.70;99.90;;;;;;5005424;28;20052;-89
2023/07/29 05:05:28;;;;;;;9.90;3.90;;;17.80;99.90;;;;;;4998866;28;21200;-90
2023/07/29 05:07:54;;;;;;;10.23;3.95;;;17.80;99.90;;;;;;5002543;28;20142;-90
2023/07/29 05:10:20;;;;;;;11.48;3.67;;;17.80;99.90;;;;;;4979114;28;20037;-90
2023/07/29 05:12:46;;;;;;;9.48;3.47;;;17.80;99.90;;;;;;4990266;28;20033;-89
2023/07/29 05:15:11;;;;;;;9.35;3.47;;;17.80;99.90;;;;;;4988855;28;20063;-90
2023/07/29 05:17:38;;;;;;;9.07;3.55;;;17.80;99.90;;;;;;5028532;28;20079;-90
2023/07/29 05:20:04;;;;;;;8.50;3.17;;;17.80;99.90;;;;;;5016911;28;20405;-90
2023/07/29 05:22:30;;;;;;;8.52;3.08;;;17.80;99.90;;;;;;4976616;28;20702;-89
2023/07/29 05:24:55;;;;;;;10.00;3.45;;;17.80;99.90;;;;;;4993590;28;20056;-90
2023/07/29 05:27:21;;;;;;;8.57;3.25;;;17.90;99.90;;;;;;5007437;28;20049;-89
2023/07/29 05:29:47;;;;;;;9.30;3.10;;;17.80;99.90;;;;;;5002056;28;20440;-90
2023/07/29 05:32:12;;;;;;;9.32;3.00;;;17.90;99.90;;;;;;5007704;28;20088;-89
2023/07/29 05:34:41;;;;;;;8.80;3.15;;;17.90;99.90;;;;;;5005767;28;20481;-89
2023/07/29 05:37:07;;;;;;;11.40;3.25;;;17.90;99.90;;;;;;4990876;28;20028;-90
2023/07/29 05:39:33;;;;;;;8.35;3.30;;;17.90;99.90;;;;;;4988808;28;20037;-90
2023/07/29 05:41:58;;;;;;;9.35;2.83;;;17.90;99.90;;;;;;5037675;28;20041;-90
2023/07/29 05:44:24;;;;;;;7.93;3.20;;;17.90;99.90;;;;;;5014471;28;20044;-91
2023/07/29 05:46:50;;;;;;;9.23;3.38;;;17.90;99.90;;;;;;4999588;28;20073;-91
2023/07/29 05:49:16;;;;;;;8.55;3.00;;;17.80;99.90;;;;;;5021608;28;20124;-90
2023/07/29 05:51:42;;;;;;;10.98;3.53;;;17.90;99.90;;;;;;4999451;28;20103;-90
2023/07/29 05:54:08;;;;;;;9.55;3.13;;;17.90;99.90;;;;;;4994135;28;20045;-90
2023/07/29 05:56:33;;;;;;;8.40;3.20;;;17.90;99.90;;;;;;4998667;28;20115;-90
2023/07/29 05:58:59;;;;;;;9.82;3.08;;;17.90;99.90;;;;;;5023826;28;20124;-91
2023/07/29 06:01:26;;;;;;;9.90;3.28;;;17.90;99.90;;;;;;5010821;28;20095;-92
2023/07/29 06:03:51;;;;;;;9.75;3.00;;;17.90;99.90;;;;;;4992718;28;20038;-92
2023/07/29 06:06:17;;;;;;;8.63;3.17;;;18.00;99.90;;;;;;4974762;28;20050;-91
2023/07/29 06:08:43;;;;;;;8.57;3.00;;;18.00;99.90;;;;;;4988068;28;20099;-91
2023/07/29 06:11:09;;;;;;;8.85;3.20;;;18.00;99.90;;;;;;4990601;28;20029;-91
2023/07/29 06:13:34;;;;;;;7.93;2.80;;;17.90;99.90;;;;;;4989815;28;20033;-90
2023/07/29 06:16:00;;;;;;;12.20;3.17;;;18.00;99.90;;;;;;5009883;28;20041;-92
2023/07/29 06:18:26;;;;;;;8.20;2.67;;;18.00;99.90;;;;;;4994424;28;20097;-90
2023/07/29 06:20:52;;;;;;;9.90;2.85;;;18.00;99.90;;;;;;4976816;28;20617;-91
2023/07/29 06:23:17;;;;;;;8.73;3.10;;;18.40;99.90;;;;;;4979891;28;20041;-91
2023/07/29 06:25:43;;;;;;;8.20;2.88;;;18.10;99.90;;;;;;5009535;28;20525;-90
2023/07/29 06:28:09;;;;;;;8.73;2.88;;;18.10;99.90;;;;;;4994124;28;20120;-91
2023/07/29 06:30:35;;;;;;;8.45;2.92;;;18.10;99.90;;;;;;5026642;28;20038;-90
2023/07/29 06:33:03;;;;;;;8.63;2.67;;;18.10;99.90;;;;;;4988337;28;20042;-91
2023/07/29 06:35:29;;;;;;;9.57;3.20;;;18.20;99.90;;;;;;5005309;28;20041;-90
2023/07/29 06:37:54;;;;;;;7.50;2.70;;;18.20;99.90;;;;;;5007022;28;20040;-91
2023/07/29 06:40:20;;;;;;;7.93;3.13;;;18.20;99.90;;;;;;5008554;28;20045;-92
2023/07/29 06:42:46;;;;;;;9.55;3.30;;;18.30;99.90;;;;;;4993817;28;20064;-92
2023/07/29 06:45:12;;;;;;;9.00;2.97;;;18.50;99.90;;;;;;5022147;28;20084;-90
2023/07/29 06:47:38;;;;;;;9.20;3.13;;;18.70;99.90;;;;;;4993427;28;20037;-92
2023/07/29 06:50:04;;;;;;;8.07;2.83;;;18.90;99.90;;;;;;5015356;28;20044;-90
2023/07/29 06:52:29;;;;;;;8.02;2.80;;;18.90;99.90;;;;;;5026426;28;20034;-89
2023/07/29 06:54:55;;;;;;;11.68;3.38;;;18.90;99.90;;;;;;4993729;28;20033;-91
2023/07/29 06:57:21;;;;;;;7.63;2.40;;;18.90;99.90;;;;;;4993682;28;20076;-92
2023/07/29 06:59:47;;;;;;;10.77;2.80;;;19.00;99.90;;;;;;5014820;28;20430;-91
2023/07/29 07:02:13;;;;;;;8.80;2.90;;;19.00;99.90;;;;;;4998410;28;20048;-89
2023/07/29 07:04:38;;;;;;;11.93;3.42;;;19.10;99.90;;;;;;4985756;28;20045;-91
2023/07/29 07:07:04;;;;;;;9.07;3.25;;;19.00;99.90;;;;;;4996144;28;20541;-91
2023/07/29 07:09:30;;;;;;;7.65;2.75;;;19.10;99.90;;;;;;4984909;28;20065;-93
2023/07/29 07:11:56;;;;;;;10.20;2.95;;;19.20;99.90;;;;;;4995759;28;20079;-91
2023/07/29 07:14:22;;;;;;;10.35;3.08;;;19.20;99.90;;;;;;5028037;28;20099;-92
2023/07/29 07:16:47;;;;;;;8.43;3.17;;;19.20;99.90;;;;;;5014849;28;20195;-90
2023/07/29 07:19:13;;;;;;;11.32;3.10;;;19.30;99.90;;;;;;4995801;28;20048;-95
2023/07/29 07:21:39;;;;;;;6.93;2.80;;;19.40;99.90;;;;;;4994257;28;20044;-94
2023/07/29 07:24:07;;;;;;;10.27;3.35;;;19.40;99.90;;;;;;4996187;28;20041;-92
2023/07/29 07:26:33;;;;;;;8.63;3.03;;;19.40;99.90;;;;;;5012003;28;20040;-91
2023/07/29 07:28:59;;;;;;;10.88;3.75;;;19.40;99.90;;;;;;5013398;28;20406;-93
2023/07/29 07:31:25;;;;;;;10.18;3.30;;;19.40;99.90;;;;;;4994072;28;20069;-91
2023/07/29 07:33:50;;;;;;;11.50;3.55;;;19.40;99.90;;;;;;4993852;28;20128;-90
2023/07/29 07:36:16;;;;;;;9.70;3.80;;;19.40;99.90;;;;;;4996109;28;20037;-91
2023/07/29 07:38:42;;;;;;;10.60;3.83;;;19.40;99.90;;;;;;5009180;28;20900;-92
2023/07/29 07:41:07;;;;;;;10.57;3.53;;;19.30;99.90;;;;;;4996970;28;20460;-91
2023/07/29 07:43:33;;;;;;;12.82;3.72;;;19.30;99.90;;;;;;5013912;28;20044;-90
2023/07/29 07:46:00;;;;;;;9.70;3.60;;;19.30;99.90;;;;;;4997711;28;20528;-92
2023/07/29 07:48:27;;;;;;;13.55;3.90;;;19.30;99.90;;;;;;5028325;28;20516;-91
2023/07/29 07:50:53;;;;;;;9.60;4.05;;;19.40;99.90;;;;;;5027863;28;20195;-90
2023/07/29 07:53:19;;;;;;;11.82;4.00;;;19.50;99.90;;;;;;5011196;28;20527;-92
2023/07/29 07:55:46;;;;;;;9.88;3.88;;;19.70;99.90;;;;;;4983609;28;20455;-90
2023/07/29 07:58:12;;;;;;;10.77;3.85;;;19.80;99.90;;;;;;4995423;28;20045;-90
2023/07/29 08:00:37;;;;;;;11.18;3.60;;;19.80;99.90;;;;;;4996576;28;20116;-93
2023/07/29 08:03:03;;;;;;;11.65;4.68;;;19.80;99.90;;;;;;4990059;28;20482;-94
2023/07/29 08:05:29;;;;;;;10.23;3.78;;;19.90;99.90;;;;;;4991860;28;20053;-91
2023/07/29 08:07:56;;;;;;;9.50;3.67;;;20.00;99.90;;;;;;4986964;28;20110;-91
2023/07/29 08:10:22;;;;;;;11.18;4.03;;;20.20;99.90;;;;;;4996294;28;20132;-92
2023/07/29 08:12:48;;;;;;;10.73;3.80;;;20.30;99.90;;;;;;5017472;28;20167;-93
2023/07/29 08:15:13;;;;;;;8.45;3.42;;;20.40;99.90;;;;;;5000375;28;20068;-93
2023/07/29 08:17:39;;;;;;;11.93;3.47;;;20.60;99.90;;;;;;4983409;28;20124;-93
2023/07/29 08:20:05;;;;;;;9.88;3.92;;;20.60;99.90;;;;;;4994855;28;20116;-92
2023/07/29 08:22:31;;;;;;;9.45;3.25;;;20.70;99.90;;;;;;4989808;28;20043;-94
2023/07/29 08:24:57;;;;;;;10.85;3.67;;;20.70;99.90;;;;;;5022004;28;20052;-92
2023/07/29 08:27:23;;;;;;;9.38;3.25;;;20.80;99.90;;;;;;5015155;28;20045;-91
2023/07/29 08:29:48;;;;;;;9.80;3.22;;;20.70;99.90;;;;;;5012812;28;20083;-94
2023/07/29 08:32:14;;;;;;;12.02;3.90;;;20.70;99.90;;;;;;5016368;28;20037;-92
2023/07/29 08:34:40;;;;;;;9.00;3.10;;;20.70;99.90;;;;;;5013942;28;20033;-92
2023/07/29 08:37:06;;;;;;;8.10;3.25;;;20.90;99.90;;;;;;5017842;28;20041;-94
2023/07/29 08:39:31;;;;;;;10.75;3.35;;;21.20;99.90;;;;;;4982138;28;20095;-92
2023/07/29 08:42:05;;;;;;;9.80;3.35;;;21.40;99.90;;;;;;5001823;28;20068;-91
2023/07/29 08:44:38;;;;;;;9.40;3.00;;;21.70;99.90;;;;;;5003977;28;20045;-92
2023/07/29 08:47:05;;;;;;;9.35;2.88;;;21.80;99.90;;;;;;5012800;28;20406;-93
2023/07/29 08:49:32;;;;;;;8.90;2.65;;;21.70;99.90;;;;;;5002626;28;20124;-93
2023/07/29 08:51:58;;;;;;;8.27;2.90;;;21.70;99.90;;;;;;4995246;28;20037;-92
2023/07/29 08:54:24;;;;;;;10.00;2.70;;;21.70;99.90;;;;;;5006218;28;20061;-93
2023/07/29 08:56:50;;;;;;;8.57;2.40;;;21.70;99.90;;;;;;5014487;28;20490;-91
2023/07/29 08:59:17;;;;;;;8.05;2.67;;;21.60;99.90;;;;;;4993046;28;20047;-91
2023/07/29 09:01:43;;;;;;;8.80;2.60;;;21.40;99.90;;;;;;4988651;28;20048;-93
2023/07/29 09:04:09;;;;;;;9.50;2.65;;;21.30;99.90;;;;;;5010856;28;20044;-92
2023/07/29 09:06:35;;;;;;;7.85;2.60;;;21.20;99.90;;;;;;4997155;28;20516;-94
2023/07/29 09:09:02;;;;;;;8.18;2.55;;;21.10;99.90;;;;;;5000527;28;20034;-93
2023/07/29 09:11:28;;;;;;;7.45;2.50;;;21.10;99.90;;;;;;4999179;28;20033;-93
2023/07/29 09:13:54;;;;;;;8.82;2.90;;;21.10;99.90;;;;;;5002900;28;20043;-93
2023/07/29 09:16:21;;;;;;;11.82;3.20;;;21.10;99.90;;;;;;5023836;28;20037;-92
2023/07/29 09:18:50;;;;;;;8.32;2.40;;;21.30;99.90;;;;;;5001431;28;20124;-94
2023/07/29 09:21:26;;;;;;;9.90;2.88;;;21.60;99.90;;;;;;5001381;28;20036;-93
2023/07/29 09:23:53;;;;;;;7.97;2.78;;;21.70;99.90;;;;;;5017596;28;20044;-92
2023/07/29 09:26:28;;;;;;;9.13;2.72;;;21.70;99.90;;;;;;5024384;28;20041;-90
2023/07/29 09:28:55;;;;;;;9.05;2.50;;;21.50;99.90;;;;;;5011005;28;20073;-92
2023/07/29 09:31:26;;;;;;;8.75;2.40;;;21.30;99.90;;;;;;5005540;28;20078;-93
2023/07/29 09:34:03;;;;;;;8.52;2.20;;;21.20;99.90;;;;;;5000110;28;20068;-92
2023/07/29 09:36:32;;;;;;;7.38;2.22;;;21.30;99.90;;;;;;4998836;28;20044;-93
2023/07/29 09:38:58;;;;;;;7.63;2.20;;;21.30;99.90;;;;;;5016702;28;20127;-92
2023/07/29 09:41:28;;;;;;;8.10;2.45;;;21.40;99.90;;;;;;4992849;28;20032;-92
2023/07/29 09:44:02;;;;;;;8.45;2.45;;;21.50;99.90;;;;;;4996389;28;20112;-94
2023/07/29 09:46:36;;;;;;;6.88;2.35;;;21.60;99.90;;;;;;5005151;28;20088;-92
2023/07/29 09:49:03;;;;;;;6.55;2.30;;;21.70;99.90;;;;;;5004663;28;20033;-92
2023/07/29 09:51:29;;;;;;;7.47;2.17;;;21.90;99.90;;;;;;4998232;28;20116;-93
2023/07/29 09:53:55;;;;;;;6.80;2.20;;;21.80;99.90;;;;;;4999164;28;20163;-95
2023/07/29 09:56:27;;;;;;;6.60;2.13;;;21.90;99.90;;;;;;5013084;28;20039;-93
2023/07/29 09:58:55;;;;;;;7.57;2.22;;;22.10;99.90;;;;;;4999253;28;20068;-92
2023/07/29 10:01:21;;;;;;;5.03;1.88;;;22.40;99.90;;;;;;5016832;28;20060;-93
2023/07/29 10:03:48;;;;;;;7.75;2.10;;;22.70;99.90;;;;;;5001374;28;20068;-93
2023/07/29 10:06:15;;;;;;;8.63;1.90;;;24.00;99.90;;;;;;5033712;28;20049;-95
2023/07/29 10:08:42;;;;;;;7.22;1.80;;;22.80;99.90;;;;;;5008976;28;20547;-92
2023/07/29 10:11:10;;;;;;;5.72;1.83;;;22.80;99.90;;;;;;5007591;28;20045;-93
2023/07/29 10:13:36;;;;;;;6.25;1.83;;;23.00;99.90;;;;;;5004884;28;20040;-94
2023/07/29 10:16:03;;;;;;;6.57;1.85;;;23.00;99.90;;;;;;5004801;28;20068;-92
2023/07/29 10:18:30;;;;;;;5.50;1.77;;;23.20;99.90;;;;;;5021258;28;20036;-92
2023/07/29 10:20:58;;;;;;;6.68;1.95;;;23.20;99.90;;;;;;5021068;28;20041;-93
2023/07/29 10:23:26;;;;;;;7.28;1.83;;;23.20;99.90;;;;;;5018439;28;20044;-94
2023/07/29 10:26:05;;;;;;;4.43;1.70;;;22.90;99.90;;;;;;5005894;28;20037;-92
2023/07/29 10:28:31;;;;;;;5.88;1.80;;;22.80;99.90;;;;;;5020640;28;20049;-93
2023/07/29 10:30:58;;;;;;;5.80;1.77;;;22.70;99.90;;;;;;5001944;28;20041;-93
2023/07/29 10:33:24;;;;;;;4.90;1.73;;;22.60;99.90;;;;;;5021120;28;20033;-92
2023/07/29 10:35:50;;;;;;;6.95;1.70;;;22.60;99.90;;;;;;5018676;28;20123;-94
2023/07/29 10:38:17;;;;;;;8.40;2.17;;;22.60;99.90;;;;;;4987445;28;20041;-93
2023/07/29 10:40:56;;;;;;;6.47;1.70;;;22.60;99.90;;;;;;5021012;28;20119;-91
2023/07/29 10:43:33;;;;;;;7.80;2.03;;;22.60;99.90;;;;;;5017912;28;20393;-92
2023/07/29 10:46:19;;;;;;;9.02;2.00;;;22.80;99.90;;;;;;5005120;28;20045;-94
2023/07/29 10:48:51;;;;;;;6.03;1.88;;;22.90;99.90;;;;;;5022896;28;20091;-92
2023/07/29 10:51:29;;;;;;;8.25;2.30;;;22.90;99.90;;;;;;5019326;28;20049;-93
2023/07/29 10:53:59;;;;;;;7.05;2.03;;;22.90;99.90;;;;;;5019798;28;20037;-94
2023/07/29 10:56:35;;;;;;;6.70;2.10;;;23.10;99.90;;;;;;5018801;28;20040;-92
2023/07/29 10:59:16;;;;;;;8.63;1.90;;;23.30;99.90;;;;;;5021715;28;20037;-93
2023/07/29 11:01:49;;;;;;;7.78;1.92;;;23.50;99.90;;;;;;5019617;28;20033;-91
2023/07/29 11:04:24;;;;;;;5.97;1.90;;;23.80;99.90;;;;;;5021902;28;20029;-92
2023/07/29 11:07:06;;;;;;;5.80;1.70;;;24.00;99.90;;;;;;5021910;28;20085;-93
2023/07/29 11:09:51;;;;;;;7.60;1.88;;;24.10;99.90;;;;;;5020480;28;20057;-92
2023/07/29 11:12:36;;;;;;;5.45;1.80;;;24.10;99.90;;;;;;5019891;28;20094;-93
2023/07/29 11:15:11;;;;;;;5.95;1.90;;;23.90;99.90;;;;;;5020362;28;20490;-93
2023/07/29 11:17:56;;;;;;;5.57;1.83;;;23.60;99.90;;;;;;5034402;28;20485;-91
2023/07/29 11:20:27;;;;;;;7.93;2.28;;;23.30;99.90;;;;;;5027526;28;20506;-93
2023/07/29 11:22:57;;;;;;;9.35;2.20;;;22.90;99.90;;;;;;5020472;28;20405;-93
2023/07/29 11:25:26;;;;;;;9.38;2.10;;;22.70;99.90;;;;;;5018324;28;20041;-92
2023/07/29 11:27:54;;;;;;;9.35;1.92;;;22.30;99.90;;;;;;5000740;28;20417;-93
2023/07/29 11:30:20;;;;;;;4.85;1.90;;;22.10;99.90;;;;;;5018831;28;20099;-94
2023/07/29 11:32:47;;;;;;;7.70;2.10;;;22.10;99.90;;;;;;5032686;28;20042;-93
2023/07/29 11:35:15;;;;;;;7.05;1.70;;;22.00;99.90;;;;;;5008152;28;20456;-90
2023/07/29 11:37:43;;;;;;;4.85;1.80;;;21.80;99.90;;;;;;5029969;28;20091;-91
2023/07/29 11:40:12;;;;;;;4.85;1.70;;;21.80;99.90;;;;;;5031624;28;20288;-92
2023/07/29 11:42:38;;;;;;;7.80;2.03;;;21.70;99.90;;;;;;4999107;28;20489;-92
2023/07/29 11:45:08;;;;;;;6.63;2.10;;;21.60;99.90;;;;;;4998360;28;20051;-91
2023/07/29 11:47:37;;;;;;;8.55;2.03;;;21.60;99.90;;;;;;5008057;28;20049;-91
2023/07/29 11:50:13;;;;;;;6.93;1.98;;;21.60;99.90;;;;;;5014413;28;20512;-91
2023/07/29 11:52:44;;;;;;;8.23;2.05;;;21.30;99.90;;;;;;5007935;28;20079;-90
2023/07/29 11:55:11;;;;;;;5.57;1.92;;;21.50;99.90;;;;;;5027914;28;20037;-92
2023/07/29 11:57:38;;;;;;;6.72;2.17;;;21.50;99.90;;;;;;5011681;28;20132;-92
2023/07/29 12:00:06;;;;;;;7.45;2.55;;;21.70;99.90;;;;;;4997257;28;20124;-92
2023/07/29 12:02:35;;;;;;;7.63;2.17;;;22.10;99.90;;;;;;4995819;28;20120;-91
2023/07/29 12:05:02;;;;;;;9.63;2.55;;;22.10;99.90;;;;;;5007759;28;20048;-92
2023/07/29 12:07:27;;;;;;;8.07;2.40;;;22.40;99.90;;;;;;5014436;28;20049;-92
2023/07/29 12:09:54;;;;;;;7.00;2.00;;;22.50;99.90;;;;;;5032588;28;20050;-94
2023/07/29 12:12:22;;;;;;;7.15;2.33;;;22.80;99.90;;;;;;5012471;28;20037;-92
2023/07/29 12:14:48;;;;;;;7.75;2.30;;;22.80;99.90;;;;;;5017553;28;20037;-94
2023/07/29 12:17:15;;;;;;;7.40;2.13;;;22.70;99.90;;;;;;4995350;28;20496;-92
2023/07/29 12:19:42;;;;;;;9.38;2.55;;;22.50;99.90;;;;;;5034369;28;20037;-91
2023/07/29 12:22:09;;;;;;;11.82;2.80;;;22.50;99.90;;;;;;4998278;28;20046;-90
2023/07/29 12:24:38;;;;;;;8.10;2.47;;;22.40;99.90;;;;;;5015800;28;20389;-93
2023/07/29 12:27:04;;;;;;;8.80;2.30;;;22.30;99.90;;;;;;4999569;28;20037;-92
2023/07/29 12:29:30;;;;;;;6.85;2.20;;;22.20;99.90;;;;;;4997129;28;20169;-91
2023/07/29 12:32:03;;;;;;;7.53;2.30;;;22.30;99.90;;;;;;5001036;28;20132;-92
2023/07/29 12:34:30;;;;;;;8.90;2.30;;;22.30;99.90;;;;;;5016412;28;20045;-91
2023/07/29 12:36:58;;;;;;;7.88;2.30;;;22.20;99.90;;;;;;5011346;28;20040;-93
2023/07/29 12:39:28;;;;;;;11.02;2.50;;;22.20;99.90;;;;;;5030560;28;20041;-94
2023/07/29 12:41:56;;;;;;;7.70;2.25;;;22.40;99.90;;;;;;5017680;28;20041;-93
2023/07/29 12:44:23;;;;;;;8.43;2.33;;;22.50;99.90;;;;;;5017473;28;20037;-92